Time;durP1;ratioP1;P1;durP2;ratioP2;P2;SDS_P1;SDS_P2;PMS_P1;PMS_P2;Temp;Humidity;BMP_temperature;BMP_pressure;BME280_temperature;BME280_humidity;BME280_pressure;Samples;Min_cycle;Max_cycle;Signal;HPM_P1;HPM_P2
2023/07/24 00:01:30;;;;;;;5.28;4.20;;;;;;;17.65;100.00;100359.84;5112047;28;20026;-68
2023/07/24 00:03:56;;;;;;;4.63;4.03;;;;;;;17.61;100.00;100354.91;5111928;28;20019;-69
2023/07/24 00:06:21;;;;;;;4.53;3.88;;;;;;;17.62;100.00;100360.16;5111870;28;20043;-68
2023/07/24 00:08:47;;;;;;;4.95;3.92;;;;;;;17.61;100.00;100368.34;5110979;28;20466;-68
2023/07/24 00:11:12;;;;;;;4.43;3.95;;;;;;;17.61;100.00;100349.53;5097687;28;20015;-68
2023/07/24 00:13:37;;;;;;;4.40;4.00;;;;;;;17.62;100.00;100351.25;5113868;28;20027;-68
2023/07/24 00:16:10;;;;;;;7.45;4.57;;;;;;;17.61;100.00;100346.84;5132364;28;20016;-68
2023/07/24 00:18:35;;;;;;;7.40;4.88;;;;;;;17.54;100.00;100335.03;5132288;28;20026;-68
2023/07/24 00:21:01;;;;;;;8.80;4.65;;;;;;;17.58;100.00;100339.94;5113807;28;20047;-68
2023/07/24 00:23:26;;;;;;;6.22;4.38;;;;;;;17.55;100.00;100328.66;5112977;28;20148;-69
2023/07/24 00:25:51;;;;;;;4.55;4.15;;;;;;;17.54;100.00;100329.66;5120807;28;20463;-68
2023/07/24 00:28:17;;;;;;;5.88;3.92;;;;;;;17.60;100.00;100334.41;5091632;28;20028;-68
2023/07/24 00:30:43;;;;;;;4.90;4.38;;;;;;;17.57;100.00;100330.19;5091298;28;20076;-68
2023/07/24 00:33:08;;;;;;;6.15;4.70;;;;;;;17.53;100.00;100315.38;5109827;28;20502;-68
2023/07/24 00:35:34;;;;;;;7.40;4.35;;;;;;;17.57;100.00;100321.28;5112789;28;20027;-68
2023/07/24 00:37:59;;;;;;;5.97;4.82;;;;;;;17.57;100.00;100318.59;5113697;28;20023;-68
2023/07/24 00:40:29;;;;;;;8.55;4.47;;;;;;;17.57;100.00;100321.28;5114364;28;20024;-68
2023/07/24 00:42:54;;;;;;;8.55;4.28;;;;;;;17.57;100.00;100314.03;5114253;28;20015;-68
2023/07/24 00:45:21;;;;;;;5.07;4.57;;;;;;;17.57;100.00;100315.91;5112753;28;20031;-68
2023/07/24 00:47:47;;;;;;;7.30;4.65;;;;;;;17.49;100.00;100301.38;5113006;28;20071;-68
2023/07/24 00:50:13;;;;;;;5.60;5.00;;;;;;;17.51;100.00;100306.59;5094918;28;20554;-68
2023/07/24 00:52:42;;;;;;;6.45;5.38;;;;;;;17.55;100.00;100310.66;5094024;28;20034;-68
2023/07/24 00:55:09;;;;;;;6.18;5.15;;;;;;;17.52;100.00;100310.13;5113183;27;20035;-68
2023/07/24 00:57:34;;;;;;;6.72;5.50;;;;;;;17.52;100.00;100307.44;5114952;28;20023;-68
2023/07/24 01:00:00;;;;;;;8.25;5.32;;;;;;;17.46;100.00;100290.91;5114408;28;20020;-68
2023/07/24 01:02:26;;;;;;;6.25;5.35;;;;;;;17.49;100.00;100301.38;5115031;28;20053;-68
2023/07/24 01:04:54;;;;;;;7.20;5.88;;;;;;;17.49;100.00;100300.53;5114536;28;20424;-68
2023/07/24 01:07:20;;;;;;;8.02;6.20;;;;;;;17.51;100.00;100289.63;5115020;28;20068;-68
2023/07/24 01:09:47;;;;;;;8.45;6.47;;;;;;;17.48;100.00;100290.78;5114353;28;20110;-68
2023/07/24 01:12:54;;;;;;;9.23;6.25;;;;;;;17.51;100.00;100285.09;5096665;28;20020;-68
2023/07/24 01:15:29;;;;;;;9.82;6.15;;;;;;;17.48;100.00;100280.03;5114468;28;20027;-68
2023/07/24 01:18:16;;;;;;;8.55;6.70;;;;;;;17.51;100.00;100268.97;5114514;28;20098;-68
2023/07/24 01:20:50;;;;;;;8.90;7.75;;;;;;;17.48;100.00;100277.34;5114040;28;20107;-68
2023/07/24 01:23:53;;;;;;;10.68;7.35;;;;;;;17.48;100.00;100280.88;5114825;28;20038;-68
2023/07/24 01:26:20;;;;;;;10.65;6.40;;;;;;;17.47;100.00;100279.19;5111013;28;20043;-68
2023/07/24 01:28:46;;;;;;;10.70;7.05;;;;;;;17.41;100.00;100262.81;5111899;28;20024;-68
2023/07/24 01:31:12;;;;;;;11.93;8.15;;;;;;;17.44;100.00;100279.50;5113781;27;20029;-68
2023/07/24 01:33:37;;;;;;;20.08;8.32;;;;;;;17.42;100.00;100267.22;5113473;28;20132;-67
2023/07/24 01:36:04;;;;;;;16.70;8.75;;;;;;;17.34;100.00;100259.91;5111334;28;20045;-66
2023/07/24 01:38:33;;;;;;;11.90;9.55;;;;;;;17.40;100.00;100275.41;5112283;28;20031;-65
2023/07/24 01:40:59;;;;;;;10.40;8.35;;;;;;;17.36;100.00;100260.59;5112990;28;20035;-65
2023/07/24 01:43:26;;;;;;;11.25;8.38;;;;;;;17.34;100.00;100251.84;5113205;28;20080;-65
2023/07/24 01:45:52;;;;;;;11.65;8.13;;;;;;;17.36;100.00;100254.38;5112714;28;20027;-65
2023/07/24 01:48:18;;;;;;;12.38;8.73;;;;;;;17.35;100.00;100256.19;5112629;28;20027;-67
2023/07/24 01:50:43;;;;;;;12.65;8.30;;;;;;;17.37;100.00;100248.00;5112780;28;20023;-67
2023/07/24 01:53:09;;;;;;;9.18;7.38;;;;;;;17.35;100.00;100244.63;5113359;28;20023;-67
2023/07/24 01:55:35;;;;;;;8.43;7.13;;;;;;;17.34;100.00;100237.56;5112424;28;20172;-67
2023/07/24 01:58:02;;;;;;;7.63;6.75;;;;;;;17.37;100.00;100240.78;5112846;28;20102;-67
2023/07/24 02:00:28;;;;;;;8.02;6.20;;;;;;;17.35;100.00;100232.00;5112635;28;20107;-68
2023/07/24 02:02:53;;;;;;;7.18;6.47;;;;;;;17.35;100.00;100229.31;5093610;28;20240;-67
2023/07/24 02:05:22;;;;;;;8.32;6.05;;;;;;;17.34;100.00;100224.97;5092978;28;20098;-67
2023/07/24 02:07:48;;;;;;;6.55;5.60;;;;;;;17.37;100.00;100231.88;5113224;28;20039;-67
2023/07/24 02:10:13;;;;;;;9.05;6.05;;;;;;;17.37;100.00;100227.34;5110662;28;20028;-67
2023/07/24 02:12:39;;;;;;;8.93;6.25;;;;;;;17.37;100.00;100218.44;5112722;28;20512;-67
2023/07/24 02:15:05;;;;;;;6.45;5.75;;;;;;;17.27;100.00;100207.78;5093433;28;20544;-68
2023/07/24 02:17:33;;;;;;;8.25;6.03;;;;;;;17.34;100.00;100216.91;5111411;28;20069;-68
2023/07/24 02:19:59;;;;;;;6.90;6.10;;;;;;;17.32;100.00;100210.81;5093678;28;20046;-67
2023/07/24 02:22:24;;;;;;;10.00;6.05;;;;;;;17.37;100.00;100213.06;5113041;28;20043;-68
2023/07/24 02:24:50;;;;;;;6.10;5.50;;;;;;;17.36;100.00;100214.91;5111757;28;20020;-68
2023/07/24 02:27:31;;;;;;;9.63;6.25;;;;;;;17.35;100.00;100209.66;5112389;28;20106;-68
2023/07/24 02:29:57;;;;;;;7.65;6.85;;;;;;;17.36;100.00;100214.91;5112224;28;20027;-67
2023/07/24 02:32:22;;;;;;;10.02;6.68;;;;;;;17.44;100.00;100209.59;5093883;28;20054;-67
2023/07/24 02:34:52;;;;;;;8.38;7.20;;;;;;;17.39;100.00;100217.28;5093708;28;20855;-68
2023/07/24 02:37:21;;;;;;;8.98;7.10;;;;;;;17.43;100.00;100218.63;5112299;28;20068;-68
2023/07/24 02:39:46;;;;;;;9.20;7.35;;;;;;;17.40;100.00;100218.94;5069227;28;20024;-68
2023/07/24 02:42:12;;;;;;;8.15;6.55;;;;;;;17.41;100.00;100227.84;5110800;28;20030;-68
2023/07/24 02:44:37;;;;;;;9.15;7.55;;;;;;;17.40;100.00;100229.72;5111449;28;20015;-68
2023/07/24 02:47:05;;;;;;;12.38;6.68;;;;;;;17.38;100.00;100217.41;5110541;28;20035;-68
2023/07/24 02:49:30;;;;;;;9.45;7.20;;;;;;;17.36;100.00;100209.53;5111571;28;20031;-67
2023/07/24 02:51:56;;;;;;;8.50;6.80;;;;;;;17.37;100.00;100207.69;5112553;28;20046;-67
2023/07/24 02:54:21;;;;;;;9.25;6.60;;;;;;;17.28;100.00;100206.78;5110187;28;20110;-67
2023/07/24 02:56:47;;;;;;;7.13;6.07;;;;;;;17.32;100.00;100202.75;5112599;28;20038;-67
2023/07/24 02:59:12;;;;;;;6.95;5.85;;;;;;;17.26;100.00;100211.44;5093307;28;20023;-67
2023/07/24 03:01:40;;;;;;;7.13;6.00;;;;;;;17.18;100.00;100197.97;5111091;28;20031;-67
2023/07/24 03:04:05;;;;;;;6.35;5.40;;;;;;;17.16;100.00;100210.69;5093207;28;20019;-67
2023/07/24 03:06:33;;;;;;;7.97;5.32;;;;;;;17.17;100.00;100207.00;5092536;28;20026;-67
2023/07/24 03:08:59;;;;;;;6.00;4.43;;;;;;;17.02;100.00;100183.38;5093052;28;20096;-68
2023/07/24 03:11:24;;;;;;;5.15;4.65;;;;;;;16.93;100.00;100187.00;5093377;28;20118;-67
2023/07/24 03:13:50;;;;;;;5.90;4.72;;;;;;;16.99;100.00;100188.22;5112274;28;20519;-67
2023/07/24 03:16:17;;;;;;;6.07;4.78;;;;;;;16.95;100.00;100193.06;5111865;28;20062;-67
2023/07/24 03:18:42;;;;;;;6.45;4.65;;;;;;;16.92;100.00;100200.59;5093520;28;20023;-68
2023/07/24 03:21:09;;;;;;;5.28;4.78;;;;;;;16.95;100.00;100208.34;5110626;28;20169;-68
2023/07/24 03:23:34;;;;;;;6.43;4.20;;;;;;;16.83;100.00;100210.41;5110452;28;20043;-67
2023/07/24 03:25:59;;;;;;;7.13;4.30;;;;;;;16.88;100.00;100212.63;5110297;28;20015;-67
2023/07/24 03:28:25;;;;;;;4.78;4.28;;;;;;;16.83;100.00;100191.59;5109660;28;20038;-68
2023/07/24 03:30:51;;;;;;;5.45;4.05;;;;;;;16.82;100.00;100189.91;5110218;28;20023;-68
2023/07/24 03:33:16;;;;;;;5.35;3.72;;;;;;;16.70;100.00;100183.88;5108872;28;20092;-67
2023/07/24 03:35:41;;;;;;;5.00;4.03;;;;;;;16.76;100.00;100193.19;5109642;28;20114;-68
2023/07/24 03:38:07;;;;;;;4.18;3.78;;;;;;;16.83;100.00;100188.09;5109686;28;20027;-68
2023/07/24 03:40:32;;;;;;;5.22;4.00;;;;;;;16.75;100.00;100186.13;5110828;28;20027;-68
2023/07/24 03:42:58;;;;;;;5.32;4.30;;;;;;;16.79;100.00;100184.84;5092794;28;20114;-68
2023/07/24 03:45:23;;;;;;;4.82;3.92;;;;;;;16.77;100.00;100185.00;5111870;28;20044;-68
2023/07/24 03:47:48;;;;;;;5.82;4.30;;;;;;;16.79;100.00;100183.03;5093775;28;20019;-68
2023/07/24 03:50:14;;;;;;;6.03;4.55;;;;;;;16.83;100.00;100186.25;5112204;28;20051;-68
2023/07/24 03:52:40;;;;;;;5.70;4.40;;;;;;;16.87;100.00;100176.88;5111972;28;20389;-68
2023/07/24 03:55:05;;;;;;;5.00;4.47;;;;;;;16.77;100.00;100168.06;5111325;28;20026;-68
2023/07/24 03:57:31;;;;;;;7.22;4.50;;;;;;;16.86;100.00;100179.72;5111992;28;20084;-68
2023/07/24 03:59:56;;;;;;;8.35;4.78;;;;;;;16.82;100.00;100178.31;5093062;28;20136;-68
2023/07/24 04:02:25;;;;;;;6.40;4.80;;;;;;;16.89;100.00;100196.38;5111836;28;20111;-68
2023/07/24 04:04:51;;;;;;;5.40;4.57;;;;;;;16.77;100.00;100182.31;5111807;28;20414;-68
2023/07/24 04:07:16;;;;;;;4.80;4.30;;;;;;;16.88;100.00;100196.50;5112263;28;20035;-68
2023/07/24 04:09:42;;;;;;;6.43;4.35;;;;;;;16.80;100.00;100198.13;5112695;28;20059;-68
2023/07/24 04:12:07;;;;;;;5.15;4.50;;;;;;;16.82;100.00;100203.34;5115924;28;20030;-68
2023/07/24 04:14:33;;;;;;;9.02;4.70;;;;;;;16.80;100.00;100205.34;5115546;28;20027;-68
2023/07/24 04:16:58;;;;;;;7.13;4.80;;;;;;;16.75;100.00;100211.13;5097577;28;20024;-67
2023/07/24 04:19:23;;;;;;;6.13;4.93;;;;;;;16.79;100.00;100211.69;5115839;28;20367;-67
2023/07/24 04:21:49;;;;;;;5.25;4.75;;;;;;;16.71;100.00;100201.69;5115523;28;20044;-68
2023/07/24 04:24:14;;;;;;;6.93;5.32;;;;;;;16.77;100.00;100201.13;5115491;28;20019;-67
2023/07/24 04:26:40;;;;;;;8.70;5.10;;;;;;;16.68;100.00;100196.63;5115721;28;20032;-67
2023/07/24 04:29:06;;;;;;;6.18;4.85;;;;;;;16.67;100.00;100202.16;5115279;28;20027;-67
2023/07/24 04:31:31;;;;;;;5.72;5.15;;;;;;;16.66;100.00;100198.63;5115612;28;20027;-67
2023/07/24 04:33:57;;;;;;;8.82;5.20;;;;;;;16.65;100.00;100215.75;5115447;28;20127;-68
2023/07/24 04:36:22;;;;;;;5.45;4.93;;;;;;;16.64;100.00;100216.72;5115602;28;20383;-68
2023/07/24 04:38:48;;;;;;;6.55;5.95;;;;;;;16.60;100.00;100217.19;5096387;28;20030;-67
2023/07/24 04:41:13;;;;;;;5.78;5.10;;;;;;;16.63;100.00;100215.03;5115633;28;20085;-67
2023/07/24 04:43:38;;;;;;;5.43;4.93;;;;;;;16.54;100.00;100215.94;5096878;28;20030;-67
2023/07/24 04:46:04;;;;;;;7.40;4.78;;;;;;;16.55;100.00;100217.63;5115247;28;20443;-67
2023/07/24 04:48:29;;;;;;;7.70;5.10;;;;;;;16.46;100.00;100197.91;5115312;28;20063;-68
2023/07/24 04:50:55;;;;;;;6.82;5.93;;;;;;;16.52;100.00;100217.94;5096904;28;20026;-68
2023/07/24 04:53:21;;;;;;;9.30;5.35;;;;;;;16.47;100.00;100210.34;5114817;28;20028;-68
2023/07/24 04:55:47;;;;;;;5.78;5.28;;;;;;;16.43;100.00;100219.66;5114998;28;20081;-67
2023/07/24 04:58:12;;;;;;;5.63;5.13;;;;;;;16.46;100.00;100207.78;5113648;27;20073;-67
2023/07/24 05:00:38;;;;;;;6.13;5.22;;;;;;;16.42;100.00;100203.72;5114786;28;20099;-67
2023/07/24 05:03:03;;;;;;;5.97;5.30;;;;;;;16.47;100.00;100201.41;5114584;28;20482;-67
2023/07/24 05:05:29;;;;;;;6.20;5.60;;;;;;;16.47;100.00;100206.78;5109814;28;20039;-67
2023/07/24 05:07:57;;;;;;;5.70;5.20;;;;;;;16.49;100.00;100207.50;5111633;28;20024;-68
2023/07/24 05:10:23;;;;;;;6.20;5.63;;;;;;;16.47;100.00;100204.97;5109621;28;20051;-68
2023/07/24 05:12:48;;;;;;;6.30;5.72;;;;;;;16.48;100.00;100214.72;5110442;28;20047;-67
2023/07/24 05:15:16;;;;;;;8.15;5.80;;;;;;;16.47;100.00;100223.75;5110888;28;20031;-68
2023/07/24 05:17:43;;;;;;;5.80;5.30;;;;;;;16.50;100.00;100218.09;5095689;28;20371;-67
2023/07/24 05:20:09;;;;;;;6.15;5.55;;;;;;;16.54;100.00;100215.94;5094677;28;20034;-68
2023/07/24 05:22:34;;;;;;;6.80;5.88;;;;;;;16.61;100.00;100221.56;5110312;28;20043;-68
2023/07/24 05:25:00;;;;;;;6.70;6.03;;;;;;;16.51;100.00;100227.00;5112825;28;20043;-68
2023/07/24 05:27:25;;;;;;;6.25;5.60;;;;;;;16.55;100.00;100225.69;5112925;27;20389;-68
2023/07/24 05:29:51;;;;;;;7.05;6.40;;;;;;;16.56;100.00;100211.28;5114017;28;20034;-68
2023/07/24 05:32:16;;;;;;;6.45;5.85;;;;;;;16.51;100.00;100224.31;5113625;28;20542;-68
2023/07/24 05:34:41;;;;;;;7.05;6.45;;;;;;;16.60;100.00;100226.06;5113151;28;20031;-68
2023/07/24 05:37:07;;;;;;;7.43;6.82;;;;;;;16.58;100.00;100234.28;5114301;28;20029;-68
2023/07/24 05:39:32;;;;;;;7.00;6.40;;;;;;;16.48;100.00;100222.75;5095540;28;20111;-68
2023/07/24 05:42:00;;;;;;;8.13;7.43;;;;;;;16.62;100.00;100226.78;5113852;28;20024;-68
2023/07/24 05:44:25;;;;;;;7.63;7.03;;;;;;;16.60;100.00;100226.06;5114087;28;20073;-68
2023/07/24 05:46:53;;;;;;;7.43;6.82;;;;;;;16.58;100.00;100230.75;5113951;28;20420;-68
2023/07/24 05:49:19;;;;;;;7.97;7.22;;;;;;;16.55;100.00;100231.03;5112746;28;20093;-68
2023/07/24 05:51:46;;;;;;;7.78;7.07;;;;;;;16.70;100.00;100244.81;5113980;28;20028;-68
2023/07/24 05:54:12;;;;;;;8.93;7.97;;;;;;;16.70;100.00;100242.13;5113406;28;20024;-68
2023/07/24 05:56:37;;;;;;;8.05;7.35;;;;;;;16.73;100.00;100253.41;5113628;28;20147;-68
2023/07/24 05:59:02;;;;;;;9.18;8.25;;;;;;;16.75;100.00;100253.25;5115681;27;20667;-68
2023/07/24 06:01:28;;;;;;;11.77;8.50;;;;;;;16.78;100.00;100250.31;5134239;27;20015;-68
2023/07/24 06:03:53;;;;;;;9.10;8.27;;;;;;;16.75;100.00;100246.03;5115394;27;20390;-67
2023/07/24 06:06:19;;;;;;;9.27;8.48;;;;;;;16.74;100.00;100247.03;5110769;28;20026;-67
2023/07/24 06:08:44;;;;;;;8.82;7.95;;;;;;;16.72;100.00;100243.66;5109947;28;20115;-68
2023/07/24 06:11:10;;;;;;;9.30;8.43;;;;;;;16.77;100.00;100259.38;5113284;28;20020;-67
2023/07/24 06:13:35;;;;;;;9.23;8.43;;;;;;;16.69;100.00;100243.13;5110212;28;20023;-67
2023/07/24 06:16:01;;;;;;;9.23;8.43;;;;;;;16.72;100.00;100246.34;5112399;28;20068;-67
2023/07/24 06:18:26;;;;;;;10.25;9.35;;;;;;;16.83;100.00;100264.13;5113540;28;20118;-68
2023/07/24 06:20:53;;;;;;;11.00;9.80;;;;;;;16.88;100.00;100247.53;5110176;28;20020;-66
2023/07/24 06:23:18;;;;;;;10.85;9.88;;;;;;;17.00;100.00;100252.56;5111630;28;20383;-67
2023/07/24 06:25:46;;;;;;;9.18;8.48;;;;;;;17.10;100.00;100248.94;5113004;28;20020;-67
2023/07/24 06:28:11;;;;;;;10.05;9.23;;;;;;;17.16;100.00;100251.84;5110323;28;20122;-67
2023/07/24 06:30:38;;;;;;;12.52;9.27;;;;;;;17.21;100.00;100256.78;5112014;28;20165;-67
2023/07/24 06:33:04;;;;;;;8.38;7.68;;;;;;;17.13;100.00;100244.09;5112594;28;20080;-67
2023/07/24 06:35:29;;;;;;;9.60;8.80;;;;;;;17.23;100.00;100252.91;5110449;28;20019;-67
2023/07/24 06:37:57;;;;;;;9.57;8.77;;;;;;;17.24;100.00;100261.84;5112879;28;20027;-67
2023/07/24 06:40:22;;;;;;;8.55;7.85;;;;;;;17.20;100.00;100261.28;5112435;28;20491;-67
2023/07/24 06:42:48;;;;;;;8.50;7.63;;;;;;;17.10;100.00;100257.84;5094659;28;20122;-67
2023/07/24 06:45:13;;;;;;;8.68;7.90;;;;;;;17.09;100.00;100258.84;5113156;28;20008;-67
2023/07/24 06:47:38;;;;;;;9.18;7.88;;;;;;;17.03;100.00;100254.94;5077964;28;20026;-67
2023/07/24 06:50:05;;;;;;;9.00;8.30;;;;;;;17.13;100.00;100245.94;5111635;28;20054;-67
2023/07/24 06:52:32;;;;;;;8.65;7.88;;;;;;;17.12;100.00;100258.53;5076711;28;20024;-67
2023/07/24 06:54:58;;;;;;;9.07;8.23;;;;;;;17.04;100.00;100250.41;5111879;28;20039;-67
2023/07/24 06:57:24;;;;;;;8.98;8.27;;;;;;;17.00;100.00;100244.50;5094714;28;20088;-68
2023/07/24 06:59:49;;;;;;;8.02;7.35;;;;;;;17.00;100.00;100251.69;5091691;28;20020;-67
2023/07/24 07:02:14;;;;;;;7.80;6.97;;;;;;;17.09;100.00;100249.91;5112406;28;20020;-67
2023/07/24 07:04:40;;;;;;;8.05;7.35;;;;;;;17.06;100.00;100242.16;5103972;28;20057;-68
2023/07/24 07:07:05;;;;;;;9.07;8.18;;;;;;;17.07;100.00;100247.41;5111658;28;20029;-67
2023/07/24 07:09:30;;;;;;;9.80;8.68;;;;;;;17.05;100.00;100253.94;5109976;28;20547;-67
2023/07/24 07:11:56;;;;;;;7.93;7.20;;;;;;;16.98;100.00;100249.16;5111720;28;20155;-67
2023/07/24 07:14:21;;;;;;;7.82;7.03;;;;;;;16.96;100.00;100253.00;5093528;28;20363;-67
2023/07/24 07:16:47;;;;;;;7.65;6.95;;;;;;;16.96;100.00;100253.00;5111677;28;20055;-67
2023/07/24 07:19:13;;;;;;;7.65;7.05;;;;;;;16.92;100.00;100247.09;5093547;28;20099;-67
2023/07/24 07:21:38;;;;;;;7.65;6.93;;;;;;;16.91;100.00;100245.41;5081126;28;20131;-67
2023/07/24 07:24:04;;;;;;;6.80;6.28;;;;;;;16.88;100.00;100244.84;5062526;28;20032;-67
2023/07/24 07:26:29;;;;;;;7.10;6.45;;;;;;;16.83;100.00;100242.63;5059400;28;20047;-67
2023/07/24 07:28:55;;;;;;;6.47;5.80;;;;;;;16.76;100.00;100246.91;5060462;28;20032;-67
2023/07/24 07:31:21;;;;;;;5.68;5.18;;;;;;;16.71;100.00;100247.34;5059455;28;20024;-67
2023/07/24 07:33:48;;;;;;;5.53;5.13;;;;;;;16.74;100.00;100232.78;5060183;28;20032;-67
2023/07/24 07:36:14;;;;;;;7.00;5.15;;;;;;;16.97;100.00;100244.81;5061444;28;20471;-67
2023/07/24 07:38:40;;;;;;;6.28;5.75;;;;;;;17.40;100.00;100250.38;5052124;28;20094;-67
2023/07/24 07:41:06;;;;;;;5.82;5.38;;;;;;;17.56;100.00;100249.66;5053251;28;20032;-67
2023/07/24 07:43:31;;;;;;;6.78;5.43;;;;;;;17.57;100.00;100238.75;5060209;28;20495;-67
2023/07/24 07:45:58;;;;;;;6.28;5.72;;;;;;;17.55;100.00;100248.81;5061693;28;20024;-67
2023/07/24 07:48:23;;;;;;;6.45;5.85;;;;;;;17.57;100.00;100232.53;5054786;28;20036;-67
2023/07/24 07:50:52;;;;;;;6.03;5.43;;;;;;;17.73;100.00;100235.31;5057321;28;20020;-67
2023/07/24 07:53:20;;;;;;;5.97;5.47;;;;;;;17.89;100.00;100246.22;5063664;28;20028;-67
2023/07/24 07:55:45;;;;;;;6.10;5.40;;;;;;;17.93;100.00;100252.13;5071562;28;20031;-67
2023/07/24 07:58:10;;;;;;;6.32;5.82;;;;;;;18.00;100.00;100237.03;5070650;28;20020;-67
2023/07/24 08:00:38;;;;;;;7.18;6.38;;;;;;;17.96;100.00;100245.59;5071213;28;20052;-67
2023/07/24 08:03:03;;;;;;;5.75;5.30;;;;;;;17.89;100.00;100243.53;5073690;28;20060;-67
2023/07/24 08:05:28;;;;;;;6.72;6.18;;;;;;;17.90;100.00;100261.34;5064362;28;20062;-67
2023/07/24 08:07:56;;;;;;;7.50;6.57;;;;;;;17.86;100.00;100246.53;5074512;28;20111;-67
2023/07/24 08:10:21;;;;;;;6.95;6.38;;;;;;;17.84;100.00;100245.00;5068340;28;20024;-67
2023/07/24 08:12:47;;;;;;;7.30;6.15;;;;;;;18.10;100.00;100245.84;5069196;28;20161;-67
2023/07/24 08:15:12;;;;;;;7.30;6.70;;;;;;;18.19;100.00;100248.56;5072030;28;20016;-67
2023/07/24 08:17:38;;;;;;;7.30;6.55;;;;;;;18.23;100.00;100247.22;5070054;28;20025;-67
2023/07/24 08:20:04;;;;;;;7.95;7.15;;;;;;;18.14;100.00;100241.81;5070638;28;20054;-67
2023/07/24 08:22:29;;;;;;;9.82;7.72;;;;;;;18.03;100.00;100234.03;5100188;27;20043;-67
2023/07/24 08:24:55;;;;;;;8.35;7.57;;;;;;;18.12;100.00;100230.38;5110043;27;20011;-67
2023/07/24 08:27:20;;;;;;;7.85;7.15;;;;;;;18.10;100.00;100242.31;5110816;28;20371;-67
2023/07/24 08:29:45;;;;;;;8.60;7.47;;;;;;;18.08;100.00;100230.84;5113163;27;20027;-67
2023/07/24 08:32:11;;;;;;;8.10;7.38;;;;;;;18.12;100.00;100243.00;5114327;28;20631;-67
2023/07/24 08:34:36;;;;;;;8.60;7.78;;;;;;;17.99;100.00;100240.72;5113706;27;20358;-66
2023/07/24 08:37:02;;;;;;;9.20;8.40;;;;;;;18.07;100.00;100243.47;5108645;27;20470;-67
2023/07/24 08:39:28;;;;;;;9.10;7.63;;;;;;;18.02;100.00;100248.47;5090584;28;20464;-67
2023/07/24 08:41:53;;;;;;;8.63;7.80;;;;;;;18.02;100.00;100239.56;5114719;28;20039;-67
2023/07/24 08:44:20;;;;;;;9.13;8.20;;;;;;;18.10;100.00;100253.06;5090607;28;20016;-67
2023/07/24 08:46:47;;;;;;;9.30;8.40;;;;;;;18.11;100.00;100252.06;5096369;28;20027;-67
2023/07/24 08:49:13;;;;;;;8.43;7.72;;;;;;;18.14;100.00;100246.34;5114274;28;20024;-67
2023/07/24 08:51:41;;;;;;;9.10;7.85;;;;;;;18.17;100.00;100248.72;5111058;28;20077;-66
2023/07/24 08:54:07;;;;;;;8.73;7.90;;;;;;;18.13;100.00;100248.19;5109924;28;20035;-67
2023/07/24 08:56:33;;;;;;;8.38;7.53;;;;;;;18.19;100.00;100235.13;5107891;28;20490;-67
2023/07/24 08:59:00;;;;;;;8.90;8.00;;;;;;;18.16;100.00;100228.19;5113072;28;20023;-67
2023/07/24 09:01:26;;;;;;;8.55;7.65;;;;;;;18.23;100.00;100228.38;5093271;28;20026;-67
2023/07/24 09:03:51;;;;;;;8.77;7.97;;;;;;;18.26;100.00;100217.28;5099081;28;20122;-67
2023/07/24 09:06:19;;;;;;;8.68;7.88;;;;;;;18.23;100.00;100217.63;5099330;28;20027;-67
2023/07/24 09:08:44;;;;;;;8.30;7.53;;;;;;;18.26;100.00;100214.59;5112549;28;20027;-67
2023/07/24 09:11:13;;;;;;;8.13;7.32;;;;;;;18.33;100.00;100205.72;5113253;28;20436;-67
2023/07/24 09:13:42;;;;;;;11.50;8.10;;;;;;;18.50;100.00;100209.31;5109472;27;20039;-67
2023/07/24 09:16:09;;;;;;;7.40;6.70;;;;;;;18.60;100.00;100196.53;5109925;27;20398;-67
2023/07/24 09:18:42;;;;;;;8.95;7.40;;;;;;;18.73;100.00;100190.69;5112003;28;20031;-67
2023/07/24 09:21:09;;;;;;;8.15;7.45;;;;;;;18.94;100.00;100190.25;5091398;28;20083;-67
2023/07/24 09:23:34;;;;;;;8.57;7.60;;;;;;;18.98;100.00;100190.75;5109589;27;20035;-67
2023/07/24 09:26:05;;;;;;;8.45;7.65;;;;;;;19.06;100.00;100194.28;5088940;28;20057;-67
2023/07/24 09:28:32;;;;;;;8.52;7.63;;;;;;;19.08;100.00;100183.31;5111256;27;20027;-67
2023/07/24 09:31:00;;;;;;;8.27;7.47;;;;;;;19.05;100.00;100191.75;5112093;28;20030;-67
2023/07/24 09:33:36;;;;;;;7.85;7.18;;;;;;;18.97;100.00;100181.81;5094388;28;20019;-67
2023/07/24 09:36:04;;;;;;;7.70;7.00;;;;;;;18.86;100.00;100176.75;5113879;28;20050;-67
2023/07/24 09:38:29;;;;;;;7.18;6.57;;;;;;;18.81;100.00;100158.38;5095268;28;20543;-67
2023/07/24 09:40:57;;;;;;;6.70;5.85;;;;;;;18.78;100.00;100158.72;5095880;28;20027;-67
2023/07/24 09:43:26;;;;;;;6.88;5.80;;;;;;;18.80;100.00;100174.72;5114197;28;20015;-67
2023/07/24 09:45:52;;;;;;;6.78;5.53;;;;;;;18.65;100.00;100171.81;5113883;28;20360;-67
2023/07/24 09:48:19;;;;;;;6.10;5.55;;;;;;;18.53;100.00;100167.72;5113868;28;20023;-67
2023/07/24 09:50:47;;;;;;;6.10;5.60;;;;;;;18.46;100.00;100139.78;5114172;28;20028;-67
2023/07/24 09:53:18;;;;;;;6.20;5.70;;;;;;;18.47;100.00;100150.41;5095820;28;20019;-67
2023/07/24 09:55:55;;;;;;;6.03;5.60;;;;;;;18.52;100.00;100144.50;5078513;28;20478;-67
2023/07/24 09:58:23;;;;;;;6.28;5.70;;;;;;;18.39;100.00;100145.00;5113719;28;20093;-67
2023/07/24 10:00:49;;;;;;;6.30;5.68;;;;;;;18.32;100.00;100122.41;5095368;28;20031;-67
2023/07/24 10:03:16;;;;;;;6.50;6.00;;;;;;;18.32;100.00;100146.66;5113731;28;20055;-67
2023/07/24 10:05:44;;;;;;;6.82;6.05;;;;;;;18.16;100.00;100142.91;5113636;28;20124;-67
2023/07/24 10:08:10;;;;;;;6.43;5.82;;;;;;;18.26;100.00;100156.22;5113259;28;20024;-67
2023/07/24 10:10:37;;;;;;;6.22;5.72;;;;;;;18.24;100.00;100163.63;5094840;28;20039;-67
2023/07/24 10:13:03;;;;;;;7.05;6.45;;;;;;;18.21;100.00;100169.34;5095137;28;20019;-67
2023/07/24 10:15:30;;;;;;;7.57;6.63;;;;;;;18.24;100.00;100170.88;5095139;28;20028;-67
2023/07/24 10:18:07;;;;;;;7.25;6.65;;;;;;;18.19;100.00;100173.19;5094856;28;20110;-67
2023/07/24 10:20:34;;;;;;;6.88;6.38;;;;;;;18.03;100.00;100172.16;5095092;28;20023;-67
2023/07/24 10:23:05;;;;;;;7.28;6.57;;;;;;;18.11;100.00;100171.31;5113117;28;20048;-67
2023/07/24 10:25:32;;;;;;;7.13;6.00;;;;;;;18.04;100.00;100183.75;5112704;28;20019;-67
2023/07/24 10:28:07;;;;;;;6.25;5.85;;;;;;;18.12;100.00;100181.94;5094933;28;20030;-67
2023/07/24 10:30:34;;;;;;;6.80;6.30;;;;;;;18.13;100.00;100175.53;5113037;28;20069;-67
2023/07/24 10:33:08;;;;;;;6.95;6.43;;;;;;;18.14;100.00;100181.75;5113155;28;20478;-67
2023/07/24 10:35:39;;;;;;;6.97;6.30;;;;;;;18.09;100.00;100173.34;5112940;28;20050;-67
2023/07/24 10:38:04;;;;;;;5.82;5.32;;;;;;;18.08;100.00;100174.31;5112859;28;20027;-67
2023/07/24 10:40:30;;;;;;;6.90;6.30;;;;;;;18.17;100.00;100173.34;5094319;28;20023;-67
2023/07/24 10:43:10;;;;;;;6.35;5.75;;;;;;;18.23;100.00;100185.31;5112813;28;20509;-67
2023/07/24 10:45:54;;;;;;;6.45;6.03;;;;;;;18.33;100.00;100186.88;5094293;28;20051;-67
2023/07/24 10:48:24;;;;;;;6.97;6.47;;;;;;;18.38;100.00;100208.78;5112975;28;20019;-67
2023/07/24 10:50:51;;;;;;;6.30;5.70;;;;;;;18.41;100.00;100204.06;5112941;28;20263;-67
2023/07/24 10:53:18;;;;;;;6.63;6.07;;;;;;;18.48;100.00;100200.56;5112932;28;20027;-67
2023/07/24 10:55:45;;;;;;;6.30;5.80;;;;;;;18.50;100.00;100189.59;5112528;28;20023;-67
2023/07/24 10:58:12;;;;;;;7.07;6.47;;;;;;;18.50;100.00;100182.41;5112659;28;20020;-67
2023/07/24 11:00:41;;;;;;;6.40;5.90;;;;;;;18.62;100.00;100191.00;5112482;28;20446;-67
2023/07/24 11:03:14;;;;;;;7.72;6.10;;;;;;;18.63;100.00;100202.63;5112509;28;20055;-67
2023/07/24 11:05:40;;;;;;;6.60;6.00;;;;;;;18.68;98.12;100192.16;5094514;28;20027;-67
2023/07/24 11:08:17;;;;;;;7.22;6.15;;;;;;;18.88;100.00;100193.59;5094640;28;20500;-66
2023/07/24 11:10:49;;;;;;;7.07;6.45;;;;;;;18.90;100.00;100190.72;5112298;28;20051;-66
2023/07/24 11:13:22;;;;;;;7.05;6.45;;;;;;;18.93;100.00;100206.56;5112641;28;20112;-66
2023/07/24 11:15:49;;;;;;;8.00;7.20;;;;;;;18.95;98.79;100204.56;5112001;28;20392;-66